sensor_id;sensor_type;location;lat;lon;timestamp;temperature;humidity
318;DHT22;146;53.448;10.228;2023-04-24T00:00:38;13.10;1.00
318;DHT22;146;53.448;10.228;2023-04-24T00:03:06;13.10;1.00
318;DHT22;146;53.448;10.228;2023-04-24T00:05:33;13.10;1.00
318;DHT22;146;53.448;10.228;2023-04-24T00:08:00;13.10;1.00
318;DHT22;146;53.448;10.228;2023-04-24T00:10:27;13.20;1.00
318;DHT22;146;53.448;10.228;2023-04-24T00:12:55;13.20;1.00
318;DHT22;146;53.448;10.228;2023-04-24T00:15:22;13.10;1.00
318;DHT22;146;53.448;10.228;2023-04-24T00:17:49;13.10;1.00
318;DHT22;146;53.448;10.228;2023-04-24T00:20:15;13.10;1.00
318;DHT22;146;53.448;10.228;2023-04-24T00:22:42;13.10;1.00
318;DHT22;146;53.448;10.228;2023-04-24T00:25:09;13.10;1.00
318;DHT22;146;53.448;10.228;2023-04-24T00:27:36;13.10;1.00
318;DHT22;146;53.448;10.228;2023-04-24T00:30:06;13.00;1.00
318;DHT22;146;53.448;10.228;2023-04-24T00:32:33;13.00;1.00
318;DHT22;146;53.448;10.228;2023-04-24T00:35:00;13.00;1.00
318;DHT22;146;53.448;10.228;2023-04-24T00:37:27;13.00;1.00
318;DHT22;146;53.448;10.228;2023-04-24T00:39:54;12.80;1.00
318;DHT22;146;53.448;10.228;2023-04-24T00:42:20;12.90;1.00
318;DHT22;146;53.448;10.228;2023-04-24T00:44:47;12.80;1.00
318;DHT22;146;53.448;10.228;2023-04-24T00:47:16;12.70;1.00
318;DHT22;146;53.448;10.228;2023-04-24T00:49:43;12.70;1.00
318;DHT22;146;53.448;10.228;2023-04-24T00:52:10;12.60;1.00
318;DHT22;146;53.448;10.228;2023-04-24T00:54:37;12.70;1.00
318;DHT22;146;53.448;10.228;2023-04-24T00:57:05;12.70;1.00
318;DHT22;146;53.448;10.228;2023-04-24T00:59:32;12.60;1.00
318;DHT22;146;53.448;10.228;2023-04-24T01:01:59;12.70;1.00
318;DHT22;146;53.448;10.228;2023-04-24T01:04:27;12.70;1.00
318;DHT22;146;53.448;10.228;2023-04-24T01:06:55;12.70;1.00
318;DHT22;146;53.448;10.228;2023-04-24T01:09:23;12.70;1.00
318;DHT22;146;53.448;10.228;2023-04-24T01:11:50;12.70;1.00
318;DHT22;146;53.448;10.228;2023-04-24T01:14:17;12.70;1.00
318;DHT22;146;53.448;10.228;2023-04-24T01:16:43;12.70;1.00
318;DHT22;146;53.448;10.228;2023-04-24T01:19:10;12.80;1.00
318;DHT22;146;53.448;10.228;2023-04-24T01:21:39;12.80;1.00
318;DHT22;146;53.448;10.228;2023-04-24T01:24:09;12.80;1.00
318;DHT22;146;53.448;10.228;2023-04-24T01:26:36;12.80;1.00
318;DHT22;146;53.448;10.228;2023-04-24T01:29:03;12.80;1.00
318;DHT22;146;53.448;10.228;2023-04-24T01:31:30;12.70;1.00
318;DHT22;146;53.448;10.228;2023-04-24T01:33:58;12.70;1.00
318;DHT22;146;53.448;10.228;2023-04-24T01:36:27;12.60;1.00
318;DHT22;146;53.448;10.228;2023-04-24T01:38:55;12.60;1.00
318;DHT22;146;53.448;10.228;2023-04-24T01:41:23;12.60;1.00
318;DHT22;146;53.448;10.228;2023-04-24T01:43:51;12.60;1.00
318;DHT22;146;53.448;10.228;2023-04-24T01:46:18;12.50;1.00
318;DHT22;146;53.448;10.228;2023-04-24T01:48:45;12.50;1.00
318;DHT22;146;53.448;10.228;2023-04-24T01:51:12;12.50;1.00
318;DHT22;146;53.448;10.228;2023-04-24T01:53:39;12.50;1.00
318;DHT22;146;53.448;10.228;2023-04-24T01:56:06;12.50;1.00
318;DHT22;146;53.448;10.228;2023-04-24T01:58:35;12.50;1.00
318;DHT22;146;53.448;10.228;2023-04-24T02:01:02;12.40;1.00
318;DHT22;146;53.448;10.228;2023-04-24T02:03:29;12.40;1.00
318;DHT22;146;53.448;10.228;2023-04-24T02:05:56;12.40;1.00
318;DHT22;146;53.448;10.228;2023-04-24T02:08:22;12.40;1.00
318;DHT22;146;53.448;10.228;2023-04-24T02:10:49;12.30;1.00
318;DHT22;146;53.448;10.228;2023-04-24T02:13:16;12.40;1.00
318;DHT22;146;53.448;10.228;2023-04-24T02:15:44;12.40;1.00
318;DHT22;146;53.448;10.228;2023-04-24T02:18:11;12.30;1.00
318;DHT22;146;53.448;10.228;2023-04-24T02:20:38;12.20;1.00
318;DHT22;146;53.448;10.228;2023-04-24T02:23:05;12.20;1.00
318;DHT22;146;53.448;10.228;2023-04-24T02:25:33;12.10;1.00
318;DHT22;146;53.448;10.228;2023-04-24T02:28:00;12.00;1.00
318;DHT22;146;53.448;10.228;2023-04-24T02:30:27;11.90;1.00
318;DHT22;146;53.448;10.228;2023-04-24T02:32:56;11.90;1.00
318;DHT22;146;53.448;10.228;2023-04-24T02:35:22;11.90;1.00
318;DHT22;146;53.448;10.228;2023-04-24T02:37:50;11.80;1.00
318;DHT22;146;53.448;10.228;2023-04-24T02:40:17;11.80;1.00
318;DHT22;146;53.448;10.228;2023-04-24T02:42:44;11.80;1.00
318;DHT22;146;53.448;10.228;2023-04-24T02:45:11;11.70;1.00
318;DHT22;146;53.448;10.228;2023-04-24T02:47:38;11.70;1.00
318;DHT22;146;53.448;10.228;2023-04-24T02:50:07;11.70;1.00
318;DHT22;146;53.448;10.228;2023-04-24T02:52:34;11.70;1.00
318;DHT22;146;53.448;10.228;2023-04-24T02:55:01;11.70;1.00
318;DHT22;146;53.448;10.228;2023-04-24T02:57:28;11.70;1.00
318;DHT22;146;53.448;10.228;2023-04-24T02:59:54;11.70;1.00
318;DHT22;146;53.448;10.228;2023-04-24T03:02:21;11.70;1.00
318;DHT22;146;53.448;10.228;2023-04-24T03:04:48;11.80;1.00
318;DHT22;146;53.448;10.228;2023-04-24T03:07:16;11.80;1.00
318;DHT22;146;53.448;10.228;2023-04-24T03:09:46;11.80;1.00
318;DHT22;146;53.448;10.228;2023-04-24T03:12:13;11.80;1.00
318;DHT22;146;53.448;10.228;2023-04-24T03:14:39;11.80;1.00
318;DHT22;146;53.448;10.228;2023-04-24T03:17:08;11.80;1.00
318;DHT22;146;53.448;10.228;2023-04-24T03:19:35;11.80;1.00
318;DHT22;146;53.448;10.228;2023-04-24T03:22:02;11.80;1.00
318;DHT22;146;53.448;10.228;2023-04-24T03:24:40;11.70;1.00
318;DHT22;146;53.448;10.228;2023-04-24T03:27:07;11.60;1.00
318;DHT22;146;53.448;10.228;2023-04-24T03:29:34;11.60;1.00
318;DHT22;146;53.448;10.228;2023-04-24T03:32:01;11.60;1.00
318;DHT22;146;53.448;10.228;2023-04-24T03:34:28;11.50;1.00
318;DHT22;146;53.448;10.228;2023-04-24T03:36:55;11.50;1.00
318;DHT22;146;53.448;10.228;2023-04-24T03:39:22;11.50;1.00
318;DHT22;146;53.448;10.228;2023-04-24T03:41:51;11.40;1.00
318;DHT22;146;53.448;10.228;2023-04-24T03:44:18;11.40;1.00
318;DHT22;146;53.448;10.228;2023-04-24T03:46:45;11.40;1.00
318;DHT22;146;53.448;10.228;2023-04-24T03:49:11;11.40;1.00
318;DHT22;146;53.448;10.228;2023-04-24T03:51:38;11.40;1.00
318;DHT22;146;53.448;10.228;2023-04-24T03:54:05;11.40;1.00
318;DHT22;146;53.448;10.228;2023-04-24T03:56:32;11.30;1.00
318;DHT22;146;53.448;10.228;2023-04-24T03:59:00;11.40;1.00
318;DHT22;146;53.448;10.228;2023-04-24T04:01:27;11.30;1.00
318;DHT22;146;53.448;10.228;2023-04-24T04:03:56;11.30;1.00
318;DHT22;146;53.448;10.228;2023-04-24T04:06:23;11.30;1.00
318;DHT22;146;53.448;10.228;2023-04-24T04:08:49;11.30;1.00
318;DHT22;146;53.448;10.228;2023-04-24T04:11:16;11.30;1.00
318;DHT22;146;53.448;10.228;2023-04-24T04:13:43;11.30;1.00
318;DHT22;146;53.448;10.228;2023-04-24T04:16:12;11.30;1.00
318;DHT22;146;53.448;10.228;2023-04-24T04:18:39;11.30;1.00
318;DHT22;146;53.448;10.228;2023-04-24T04:21:06;11.30;1.00
318;DHT22;146;53.448;10.228;2023-04-24T04:23:33;11.20;1.00
318;DHT22;146;53.448;10.228;2023-04-24T04:26:00;11.30;1.00
318;DHT22;146;53.448;10.228;2023-04-24T04:28:33;11.20;1.00
318;DHT22;146;53.448;10.228;2023-04-24T04:31:00;11.20;1.00
318;DHT22;146;53.448;10.228;2023-04-24T04:33:28;11.20;1.00
318;DHT22;146;53.448;10.228;2023-04-24T04:35:56;11.20;1.00
318;DHT22;146;53.448;10.228;2023-04-24T04:38:23;11.10;1.00
318;DHT22;146;53.448;10.228;2023-04-24T04:40:52;11.10;1.00
318;DHT22;146;53.448;10.228;2023-04-24T04:43:19;11.10;1.00
318;DHT22;146;53.448;10.228;2023-04-24T04:45:46;11.10;1.00
318;DHT22;146;53.448;10.228;2023-04-24T04:48:13;11.00;1.00
318;DHT22;146;53.448;10.228;2023-04-24T04:50:44;11.00;1.00
318;DHT22;146;53.448;10.228;2023-04-24T04:53:11;11.00;1.00
318;DHT22;146;53.448;10.228;2023-04-24T04:55:38;11.00;1.00
318;DHT22;146;53.448;10.228;2023-04-24T04:58:04;10.90;1.00
318;DHT22;146;53.448;10.228;2023-04-24T05:00:31;10.90;1.00
318;DHT22;146;53.448;10.228;2023-04-24T05:03:01;10.90;1.00
318;DHT22;146;53.448;10.228;2023-04-24T05:05:27;10.90;1.00
318;DHT22;146;53.448;10.228;2023-04-24T05:07:56;10.90;1.00
318;DHT22;146;53.448;10.228;2023-04-24T05:10:22;10.90;1.00
318;DHT22;146;53.448;10.228;2023-04-24T05:12:49;10.90;1.00
318;DHT22;146;53.448;10.228;2023-04-24T05:15:18;11.00;1.00
318;DHT22;146;53.448;10.228;2023-04-24T05:17:44;11.00;1.00
318;DHT22;146;53.448;10.228;2023-04-24T05:20:11;11.00;1.00
318;DHT22;146;53.448;10.228;2023-04-24T05:22:38;11.10;1.00
318;DHT22;146;53.448;10.228;2023-04-24T05:25:07;11.10;1.00
318;DHT22;146;53.448;10.228;2023-04-24T05:27:34;11.10;1.00
318;DHT22;146;53.448;10.228;2023-04-24T05:30:01;11.10;1.00
318;DHT22;146;53.448;10.228;2023-04-24T05:32:28;11.20;1.00
318;DHT22;146;53.448;10.228;2023-04-24T05:34:54;11.20;1.00
318;DHT22;146;53.448;10.228;2023-04-24T05:37:21;11.20;1.00
318;DHT22;146;53.448;10.228;2023-04-24T05:39:48;11.20;1.00
318;DHT22;146;53.448;10.228;2023-04-24T05:42:16;11.20;1.00
318;DHT22;146;53.448;10.228;2023-04-24T05:44:43;11.20;1.00
318;DHT22;146;53.448;10.228;2023-04-24T05:47:10;11.30;1.00
318;DHT22;146;53.448;10.228;2023-04-24T05:49:37;11.30;1.00
318;DHT22;146;53.448;10.228;2023-04-24T05:52:03;11.40;1.00
318;DHT22;146;53.448;10.228;2023-04-24T05:54:31;11.50;1.00
318;DHT22;146;53.448;10.228;2023-04-24T05:56:58;11.60;1.00
318;DHT22;146;53.448;10.228;2023-04-24T05:59:28;11.70;1.00
318;DHT22;146;53.448;10.228;2023-04-24T06:01:55;11.70;1.00
318;DHT22;146;53.448;10.228;2023-04-24T06:04:21;11.80;1.00
318;DHT22;146;53.448;10.228;2023-04-24T06:06:48;11.80;1.00
318;DHT22;146;53.448;10.228;2023-04-24T06:09:21;11.90;1.00
318;DHT22;146;53.448;10.228;2023-04-24T06:11:48;12.00;1.00
318;DHT22;146;53.448;10.228;2023-04-24T06:14:15;12.00;1.00
318;DHT22;146;53.448;10.228;2023-04-24T06:16:43;12.00;1.00
318;DHT22;146;53.448;10.228;2023-04-24T06:19:10;12.00;1.00
318;DHT22;146;53.448;10.228;2023-04-24T06:21:37;12.10;1.00
318;DHT22;146;53.448;10.228;2023-04-24T06:24:04;12.20;1.00
318;DHT22;146;53.448;10.228;2023-04-24T06:26:30;12.20;1.00
318;DHT22;146;53.448;10.228;2023-04-24T06:28:57;12.30;1.00
318;DHT22;146;53.448;10.228;2023-04-24T06:31:25;12.40;1.00
318;DHT22;146;53.448;10.228;2023-04-24T06:33:53;12.40;1.00
318;DHT22;146;53.448;10.228;2023-04-24T06:36:20;12.40;1.00
318;DHT22;146;53.448;10.228;2023-04-24T06:38:47;12.50;1.00
318;DHT22;146;53.448;10.228;2023-04-24T06:41:15;12.60;1.00
318;DHT22;146;53.448;10.228;2023-04-24T06:43:42;12.60;1.00
318;DHT22;146;53.448;10.228;2023-04-24T06:46:10;12.70;1.00
318;DHT22;146;53.448;10.228;2023-04-24T06:48:37;12.80;1.00
318;DHT22;146;53.448;10.228;2023-04-24T06:51:06;12.80;1.00
318;DHT22;146;53.448;10.228;2023-04-24T06:53:33;12.90;1.00
318;DHT22;146;53.448;10.228;2023-04-24T06:56:00;12.90;1.00
318;DHT22;146;53.448;10.228;2023-04-24T06:58:27;13.00;1.00
318;DHT22;146;53.448;10.228;2023-04-24T07:00:54;13.10;1.00
318;DHT22;146;53.448;10.228;2023-04-24T07:03:20;13.20;1.00
318;DHT22;146;53.448;10.228;2023-04-24T07:05:48;13.20;1.00
318;DHT22;146;53.448;10.228;2023-04-24T07:08:16;13.30;1.00
318;DHT22;146;53.448;10.228;2023-04-24T07:10:44;13.30;1.00
318;DHT22;146;53.448;10.228;2023-04-24T07:13:10;13.20;1.00
318;DHT22;146;53.448;10.228;2023-04-24T07:15:37;13.30;1.00
318;DHT22;146;53.448;10.228;2023-04-24T07:18:05;13.30;1.00
318;DHT22;146;53.448;10.228;2023-04-24T07:20:32;13.30;1.00
318;DHT22;146;53.448;10.228;2023-04-24T07:22:59;13.50;1.00
318;DHT22;146;53.448;10.228;2023-04-24T07:25:27;13.50;1.00
318;DHT22;146;53.448;10.228;2023-04-24T07:27:54;13.40;1.00
318;DHT22;146;53.448;10.228;2023-04-24T07:30:21;13.50;1.00
318;DHT22;146;53.448;10.228;2023-04-24T07:32:48;13.50;1.00
318;DHT22;146;53.448;10.228;2023-04-24T07:35:15;13.50;1.00
318;DHT22;146;53.448;10.228;2023-04-24T07:37:41;13.40;1.00
318;DHT22;146;53.448;10.228;2023-04-24T07:40:12;13.70;1.00
318;DHT22;146;53.448;10.228;2023-04-24T07:42:41;13.90;1.00
318;DHT22;146;53.448;10.228;2023-04-24T07:45:09;14.10;1.00
318;DHT22;146;53.448;10.228;2023-04-24T07:47:36;14.30;1.00
318;DHT22;146;53.448;10.228;2023-04-24T07:50:05;14.40;1.00
318;DHT22;146;53.448;10.228;2023-04-24T07:52:32;14.40;1.00
318;DHT22;146;53.448;10.228;2023-04-24T07:54:59;14.50;1.00
318;DHT22;146;53.448;10.228;2023-04-24T07:57:27;14.50;1.00
318;DHT22;146;53.448;10.228;2023-04-24T07:59:56;14.40;1.00
318;DHT22;146;53.448;10.228;2023-04-24T08:02:23;14.50;1.00
318;DHT22;146;53.448;10.228;2023-04-24T08:04:52;14.60;1.00
318;DHT22;146;53.448;10.228;2023-04-24T08:07:20;14.70;1.00
318;DHT22;146;53.448;10.228;2023-04-24T08:09:46;14.80;1.00
318;DHT22;146;53.448;10.228;2023-04-24T08:12:13;14.80;1.00
318;DHT22;146;53.448;10.228;2023-04-24T08:14:40;14.60;1.00
318;DHT22;146;53.448;10.228;2023-04-24T08:17:08;14.60;1.00
318;DHT22;146;53.448;10.228;2023-04-24T08:19:35;14.60;1.00
318;DHT22;146;53.448;10.228;2023-04-24T08:22:02;14.60;1.00
318;DHT22;146;53.448;10.228;2023-04-24T08:24:29;14.60;1.00
318;DHT22;146;53.448;10.228;2023-04-24T08:26:56;14.80;1.00
318;DHT22;146;53.448;10.228;2023-04-24T08:29:24;14.70;1.00
318;DHT22;146;53.448;10.228;2023-04-24T08:31:50;14.60;1.00
318;DHT22;146;53.448;10.228;2023-04-24T08:34:21;14.40;1.00
318;DHT22;146;53.448;10.228;2023-04-24T08:36:48;14.40;1.00
318;DHT22;146;53.448;10.228;2023-04-24T08:39:15;14.40;1.00
318;DHT22;146;53.448;10.228;2023-04-24T08:41:43;14.40;1.00
318;DHT22;146;53.448;10.228;2023-04-24T08:44:11;14.30;1.00
318;DHT22;146;53.448;10.228;2023-04-24T08:46:38;14.30;1.00
318;DHT22;146;53.448;10.228;2023-04-24T08:49:06;14.30;1.00
318;DHT22;146;53.448;10.228;2023-04-24T08:51:34;14.30;1.00
318;DHT22;146;53.448;10.228;2023-04-24T08:54:03;14.40;1.00
318;DHT22;146;53.448;10.228;2023-04-24T08:56:32;14.30;1.00
318;DHT22;146;53.448;10.228;2023-04-24T08:59:00;14.40;1.00
318;DHT22;146;53.448;10.228;2023-04-24T09:01:27;14.40;1.00
318;DHT22;146;53.448;10.228;2023-04-24T09:03:55;14.50;1.00
318;DHT22;146;53.448;10.228;2023-04-24T09:06:23;14.80;1.00
318;DHT22;146;53.448;10.228;2023-04-24T09:08:54;14.80;1.00
318;DHT22;146;53.448;10.228;2023-04-24T09:11:22;15.00;1.00
318;DHT22;146;53.448;10.228;2023-04-24T09:13:51;15.20;1.00
318;DHT22;146;53.448;10.228;2023-04-24T09:16:18;15.40;1.00
318;DHT22;146;53.448;10.228;2023-04-24T09:18:45;15.50;1.00
318;DHT22;146;53.448;10.228;2023-04-24T09:21:12;15.50;1.00
318;DHT22;146;53.448;10.228;2023-04-24T09:23:40;15.50;1.00
318;DHT22;146;53.448;10.228;2023-04-24T09:26:09;15.60;1.00
318;DHT22;146;53.448;10.228;2023-04-24T09:28:38;15.60;1.00
318;DHT22;146;53.448;10.228;2023-04-24T09:31:07;15.70;1.00
318;DHT22;146;53.448;10.228;2023-04-24T09:33:34;15.80;1.00
318;DHT22;146;53.448;10.228;2023-04-24T09:36:01;15.80;1.00
318;DHT22;146;53.448;10.228;2023-04-24T09:38:33;15.70;1.00
318;DHT22;146;53.448;10.228;2023-04-24T09:41:01;15.90;1.00
318;DHT22;146;53.448;10.228;2023-04-24T09:43:30;16.10;1.00
318;DHT22;146;53.448;10.228;2023-04-24T09:45:58;16.00;1.00
318;DHT22;146;53.448;10.228;2023-04-24T09:48:33;16.00;1.00
318;DHT22;146;53.448;10.228;2023-04-24T09:51:01;16.10;1.00
318;DHT22;146;53.448;10.228;2023-04-24T09:53:29;16.10;1.00
318;DHT22;146;53.448;10.228;2023-04-24T09:56:02;16.10;1.00
318;DHT22;146;53.448;10.228;2023-04-24T09:58:30;16.10;1.00
318;DHT22;146;53.448;10.228;2023-04-24T10:00:57;16.00;1.00
318;DHT22;146;53.448;10.228;2023-04-24T10:03:24;16.10;1.00
318;DHT22;146;53.448;10.228;2023-04-24T10:05:53;16.20;1.00
318;DHT22;146;53.448;10.228;2023-04-24T10:08:20;16.20;1.00
318;DHT22;146;53.448;10.228;2023-04-24T10:10:48;16.20;1.00
318;DHT22;146;53.448;10.228;2023-04-24T10:13:15;16.20;1.00
318;DHT22;146;53.448;10.228;2023-04-24T10:15:44;16.00;1.00
318;DHT22;146;53.448;10.228;2023-04-24T10:18:11;15.80;1.00
318;DHT22;146;53.448;10.228;2023-04-24T10:20:39;15.80;1.00
318;DHT22;146;53.448;10.228;2023-04-24T10:23:06;15.80;1.00
318;DHT22;146;53.448;10.228;2023-04-24T10:25:34;15.80;1.00
318;DHT22;146;53.448;10.228;2023-04-24T10:28:03;15.90;1.00
318;DHT22;146;53.448;10.228;2023-04-24T10:30:31;15.90;1.00
318;DHT22;146;53.448;10.228;2023-04-24T10:33:02;15.80;1.00
318;DHT22;146;53.448;10.228;2023-04-24T10:35:31;15.60;1.00
318;DHT22;146;53.448;10.228;2023-04-24T10:38:01;15.50;1.00
318;DHT22;146;53.448;10.228;2023-04-24T10:40:31;15.40;1.00
318;DHT22;146;53.448;10.228;2023-04-24T10:42:59;15.50;1.00
318;DHT22;146;53.448;10.228;2023-04-24T10:45:28;15.50;1.00
318;DHT22;146;53.448;10.228;2023-04-24T10:47:59;15.40;1.00
318;DHT22;146;53.448;10.228;2023-04-24T10:50:30;15.40;1.00
318;DHT22;146;53.448;10.228;2023-04-24T10:53:12;15.40;1.00
318;DHT22;146;53.448;10.228;2023-04-24T10:55:44;15.50;1.00
318;DHT22;146;53.448;10.228;2023-04-24T10:58:12;15.50;1.00
318;DHT22;146;53.448;10.228;2023-04-24T11:00:40;15.50;1.00
318;DHT22;146;53.448;10.228;2023-04-24T11:03:22;15.50;1.00
318;DHT22;146;53.448;10.228;2023-04-24T11:05:54;15.60;1.00
318;DHT22;146;53.448;10.228;2023-04-24T11:08:27;15.80;1.00
318;DHT22;146;53.448;10.228;2023-04-24T11:11:02;16.00;1.00
318;DHT22;146;53.448;10.228;2023-04-24T11:16:30;16.20;1.00
318;DHT22;146;53.448;10.228;2023-04-24T11:19:03;15.90;1.00
318;DHT22;146;53.448;10.228;2023-04-24T11:21:41;15.90;1.00
318;DHT22;146;53.448;10.228;2023-04-24T11:24:39;15.80;1.00
318;DHT22;146;53.448;10.228;2023-04-24T11:27:12;15.70;1.00
318;DHT22;146;53.448;10.228;2023-04-24T11:29:45;15.70;1.00
318;DHT22;146;53.448;10.228;2023-04-24T11:32:25;15.70;1.00
318;DHT22;146;53.448;10.228;2023-04-24T11:34:54;15.60;1.00
318;DHT22;146;53.448;10.228;2023-04-24T11:37:24;15.50;1.00
318;DHT22;146;53.448;10.228;2023-04-24T11:39:52;15.50;1.00
318;DHT22;146;53.448;10.228;2023-04-24T11:42:20;15.50;1.00
318;DHT22;146;53.448;10.228;2023-04-24T11:44:48;15.60;1.00
318;DHT22;146;53.448;10.228;2023-04-24T11:47:15;15.60;1.00
318;DHT22;146;53.448;10.228;2023-04-24T11:49:42;15.60;1.00
318;DHT22;146;53.448;10.228;2023-04-24T11:52:09;15.70;1.00
318;DHT22;146;53.448;10.228;2023-04-24T11:54:37;15.80;1.00
318;DHT22;146;53.448;10.228;2023-04-24T11:57:06;16.00;1.00
318;DHT22;146;53.448;10.228;2023-04-24T11:59:36;16.00;1.00
318;DHT22;146;53.448;10.228;2023-04-24T12:02:03;16.00;1.00
318;DHT22;146;53.448;10.228;2023-04-24T12:04:39;16.20;1.00
318;DHT22;146;53.448;10.228;2023-04-24T12:07:07;16.10;1.00
318;DHT22;146;53.448;10.228;2023-04-24T12:09:43;16.00;1.00
318;DHT22;146;53.448;10.228;2023-04-24T12:12:11;16.10;1.00
318;DHT22;146;53.448;10.228;2023-04-24T12:14:48;16.30;1.00
318;DHT22;146;53.448;10.228;2023-04-24T12:17:17;16.10;1.00
318;DHT22;146;53.448;10.228;2023-04-24T12:19:48;16.20;1.00
318;DHT22;146;53.448;10.228;2023-04-24T12:22:16;16.30;1.00
318;DHT22;146;53.448;10.228;2023-04-24T12:24:58;16.40;1.00
318;DHT22;146;53.448;10.228;2023-04-24T12:27:26;16.50;1.00
318;DHT22;146;53.448;10.228;2023-04-24T12:29:53;16.60;1.00
318;DHT22;146;53.448;10.228;2023-04-24T12:32:22;16.60;1.00
318;DHT22;146;53.448;10.228;2023-04-24T12:34:49;16.60;1.00
318;DHT22;146;53.448;10.228;2023-04-24T12:37:17;16.60;1.00
318;DHT22;146;53.448;10.228;2023-04-24T12:39:59;16.40;1.00
318;DHT22;146;53.448;10.228;2023-04-24T12:42:27;16.30;1.00
318;DHT22;146;53.448;10.228;2023-04-24T12:44:57;16.30;1.00
318;DHT22;146;53.448;10.228;2023-04-24T12:47:25;16.10;1.00
318;DHT22;146;53.448;10.228;2023-04-24T12:49:52;15.90;1.00
318;DHT22;146;53.448;10.228;2023-04-24T12:52:21;15.70;1.00
318;DHT22;146;53.448;10.228;2023-04-24T12:54:49;15.50;1.00
318;DHT22;146;53.448;10.228;2023-04-24T12:57:17;15.40;1.00
318;DHT22;146;53.448;10.228;2023-04-24T12:59:44;15.10;1.00
318;DHT22;146;53.448;10.228;2023-04-24T13:02:11;14.90;1.00
318;DHT22;146;53.448;10.228;2023-04-24T13:04:38;14.70;1.00
318;DHT22;146;53.448;10.228;2023-04-24T13:07:05;14.40;1.00
318;DHT22;146;53.448;10.228;2023-04-24T13:09:34;14.30;1.00
318;DHT22;146;53.448;10.228;2023-04-24T13:12:01;14.20;1.00
318;DHT22;146;53.448;10.228;2023-04-24T13:17:33;14.10;1.00
318;DHT22;146;53.448;10.228;2023-04-24T13:20:00;14.10;1.00
318;DHT22;146;53.448;10.228;2023-04-24T13:22:28;14.00;1.00
318;DHT22;146;53.448;10.228;2023-04-24T13:24:56;14.00;1.00
318;DHT22;146;53.448;10.228;2023-04-24T13:27:23;13.80;1.00
318;DHT22;146;53.448;10.228;2023-04-24T13:29:51;13.70;1.00
318;DHT22;146;53.448;10.228;2023-04-24T13:32:18;13.70;1.00
318;DHT22;146;53.448;10.228;2023-04-24T13:34:46;13.70;1.00
318;DHT22;146;53.448;10.228;2023-04-24T13:37:12;13.60;1.00
318;DHT22;146;53.448;10.228;2023-04-24T13:39:40;13.60;1.00
318;DHT22;146;53.448;10.228;2023-04-24T13:42:08;13.60;1.00
318;DHT22;146;53.448;10.228;2023-04-24T13:44:35;13.60;1.00
318;DHT22;146;53.448;10.228;2023-04-24T13:47:03;13.50;1.00
318;DHT22;146;53.448;10.228;2023-04-24T13:49:30;13.50;1.00
318;DHT22;146;53.448;10.228;2023-04-24T13:51:57;13.50;1.00
318;DHT22;146;53.448;10.228;2023-04-24T13:54:23;13.50;1.00
318;DHT22;146;53.448;10.228;2023-04-24T13:56:51;13.70;1.00
318;DHT22;146;53.448;10.228;2023-04-24T13:59:19;13.80;1.00
318;DHT22;146;53.448;10.228;2023-04-24T14:01:46;14.00;1.00
318;DHT22;146;53.448;10.228;2023-04-24T14:04:14;14.10;1.00
318;DHT22;146;53.448;10.228;2023-04-24T14:06:41;14.10;1.00
318;DHT22;146;53.448;10.228;2023-04-24T14:09:08;14.10;1.00
318;DHT22;146;53.448;10.228;2023-04-24T14:11:35;14.10;1.00
318;DHT22;146;53.448;10.228;2023-04-24T14:14:02;14.20;1.00
318;DHT22;146;53.448;10.228;2023-04-24T14:16:29;14.30;1.00
318;DHT22;146;53.448;10.228;2023-04-24T14:18:56;14.30;1.00
318;DHT22;146;53.448;10.228;2023-04-24T14:21:24;14.40;1.00
318;DHT22;146;53.448;10.228;2023-04-24T14:23:51;14.50;1.00
318;DHT22;146;53.448;10.228;2023-04-24T14:26:19;14.50;1.00
318;DHT22;146;53.448;10.228;2023-04-24T14:28:46;14.40;1.00
318;DHT22;146;53.448;10.228;2023-04-24T14:31:12;14.30;1.00
318;DHT22;146;53.448;10.228;2023-04-24T14:33:39;14.30;1.00
318;DHT22;146;53.448;10.228;2023-04-24T14:36:08;14.20;1.00
318;DHT22;146;53.448;10.228;2023-04-24T14:38:36;14.20;1.00
318;DHT22;146;53.448;10.228;2023-04-24T14:41:06;14.10;1.00
318;DHT22;146;53.448;10.228;2023-04-24T14:43:35;14.00;1.00
318;DHT22;146;53.448;10.228;2023-04-24T14:46:02;13.90;1.00
318;DHT22;146;53.448;10.228;2023-04-24T14:48:29;13.90;1.00
318;DHT22;146;53.448;10.228;2023-04-24T14:50:56;14.00;1.00
318;DHT22;146;53.448;10.228;2023-04-24T14:53:22;14.00;1.00
318;DHT22;146;53.448;10.228;2023-04-24T14:55:51;14.00;1.00
318;DHT22;146;53.448;10.228;2023-04-24T14:58:18;14.00;1.00
318;DHT22;146;53.448;10.228;2023-04-24T15:00:48;13.90;1.00
318;DHT22;146;53.448;10.228;2023-04-24T15:03:18;13.80;1.00
318;DHT22;146;53.448;10.228;2023-04-24T15:05:51;13.70;1.00
318;DHT22;146;53.448;10.228;2023-04-24T15:08:18;13.50;1.00
318;DHT22;146;53.448;10.228;2023-04-24T15:10:45;13.10;1.00
318;DHT22;146;53.448;10.228;2023-04-24T15:13:13;12.80;1.00
318;DHT22;146;53.448;10.228;2023-04-24T15:15:40;12.60;1.00
318;DHT22;146;53.448;10.228;2023-04-24T15:18:08;12.30;1.00
318;DHT22;146;53.448;10.228;2023-04-24T15:20:36;12.00;1.00
318;DHT22;146;53.448;10.228;2023-04-24T15:23:04;11.80;1.00
318;DHT22;146;53.448;10.228;2023-04-24T15:25:32;11.60;1.00
318;DHT22;146;53.448;10.228;2023-04-24T15:27:59;11.50;1.00
318;DHT22;146;53.448;10.228;2023-04-24T15:30:28;11.30;1.00
318;DHT22;146;53.448;10.228;2023-04-24T15:32:55;11.20;1.00
318;DHT22;146;53.448;10.228;2023-04-24T15:35:22;11.10;1.00
318;DHT22;146;53.448;10.228;2023-04-24T15:37:49;10.90;1.00
318;DHT22;146;53.448;10.228;2023-04-24T15:40:18;10.80;1.00
318;DHT22;146;53.448;10.228;2023-04-24T15:42:45;10.70;1.00
318;DHT22;146;53.448;10.228;2023-04-24T15:45:15;10.60;1.00
318;DHT22;146;53.448;10.228;2023-04-24T15:47:44;10.40;1.00
318;DHT22;146;53.448;10.228;2023-04-24T15:50:11;10.10;1.00
318;DHT22;146;53.448;10.228;2023-04-24T15:52:39;10.00;1.00
318;DHT22;146;53.448;10.228;2023-04-24T15:55:06;9.90;1.60
318;DHT22;146;53.448;10.228;2023-04-24T15:57:33;9.70;2.10
318;DHT22;146;53.448;10.228;2023-04-24T16:00:00;9.50;1.00
318;DHT22;146;53.448;10.228;2023-04-24T16:02:28;9.30;1.00
318;DHT22;146;53.448;10.228;2023-04-24T16:04:56;9.20;1.00
318;DHT22;146;53.448;10.228;2023-04-24T16:07:23;9.20;1.00
318;DHT22;146;53.448;10.228;2023-04-24T16:09:50;9.00;1.00
318;DHT22;146;53.448;10.228;2023-04-24T16:12:17;9.10;1.00
318;DHT22;146;53.448;10.228;2023-04-24T16:14:44;9.10;1.00
318;DHT22;146;53.448;10.228;2023-04-24T16:17:11;8.90;1.00
318;DHT22;146;53.448;10.228;2023-04-24T16:19:41;8.90;1.00
318;DHT22;146;53.448;10.228;2023-04-24T16:22:09;8.70;1.00
318;DHT22;146;53.448;10.228;2023-04-24T16:24:36;8.70;1.00
318;DHT22;146;53.448;10.228;2023-04-24T16:27:03;8.70;1.00
318;DHT22;146;53.448;10.228;2023-04-24T16:29:30;8.60;1.00
318;DHT22;146;53.448;10.228;2023-04-24T16:31:57;8.60;1.00
318;DHT22;146;53.448;10.228;2023-04-24T16:34:24;8.50;1.00
318;DHT22;146;53.448;10.228;2023-04-24T16:36:51;8.50;1.00
318;DHT22;146;53.448;10.228;2023-04-24T16:39:19;8.50;1.00
318;DHT22;146;53.448;10.228;2023-04-24T16:41:46;8.50;1.40
318;DHT22;146;53.448;10.228;2023-04-24T16:44:14;8.50;2.40